createdAt,value
2022-12-09T00:01:22.542Z,82.03
2022-12-09T00:03:50.910Z,81.88
2022-12-09T00:06:23.284Z,81.74
2022-12-09T00:08:52.473Z,81.66
2022-12-09T00:11:22.082Z,81.65
2022-12-09T00:13:55.911Z,81.68
2022-12-09T00:16:25.667Z,81.72
2022-12-09T00:18:53.704Z,81.63
2022-12-09T00:21:25.954Z,81.57
2022-12-09T00:23:55.731Z,81.71
2022-12-09T00:26:25.952Z,81.73
2022-12-09T00:28:56.114Z,81.65
2022-12-09T00:31:30.413Z,81.77
2022-12-09T00:34:02.499Z,81.80
2022-12-09T00:36:31.734Z,81.92
2022-12-09T00:39:00.488Z,82.01
2022-12-09T00:41:30.035Z,82.10
2022-12-09T00:43:59.087Z,82.15
2022-12-09T00:46:27.712Z,82.25
2022-12-09T00:48:56.406Z,82.30
2022-12-09T00:51:26.031Z,82.41
2022-12-09T00:53:54.692Z,82.49
2022-12-09T00:56:28.502Z,82.50
2022-12-09T00:58:58.749Z,82.58
2022-12-09T01:01:28.413Z,82.82
2022-12-09T01:03:57.393Z,82.88
2022-12-09T01:06:26.977Z,82.89
2022-12-09T01:08:55.519Z,82.95
2022-12-09T01:11:28.986Z,82.87
2022-12-09T01:14:02.701Z,82.78
2022-12-09T01:16:33.706Z,82.65
2022-12-09T01:19:04.977Z,82.60
2022-12-09T01:21:35.027Z,82.44
2022-12-09T01:24:09.241Z,82.33
2022-12-09T01:26:38.732Z,82.28
2022-12-09T01:29:09.795Z,82.26
2022-12-09T01:31:38.262Z,82.19
2022-12-09T01:34:06.534Z,82.10
2022-12-09T01:36:34.896Z,82.07
2022-12-09T01:39:03.428Z,81.98
2022-12-09T01:41:31.664Z,81.92
2022-12-09T01:44:31.899Z,81.83
2022-12-09T01:47:02.604Z,81.77
2022-12-09T01:49:42.679Z,81.76
2022-12-09T01:52:17.457Z,81.80
2022-12-09T01:54:47.243Z,81.96
2022-12-09T01:57:16.457Z,82.29
2022-12-09T01:59:46.623Z,82.69
2022-12-09T02:02:17.798Z,82.78
2022-12-09T02:04:48.783Z,82.79
2022-12-09T02:07:18.658Z,82.95
2022-12-09T02:09:47.240Z,82.84
2022-12-09T02:12:23.108Z,82.77
2022-12-09T02:15:03.387Z,82.80
2022-12-09T02:17:42.290Z,82.71
2022-12-09T02:20:33.487Z,82.46
2022-12-09T02:23:10.596Z,82.46
2022-12-09T02:25:46.465Z,82.42
2022-12-09T02:28:23.839Z,82.35
2022-12-09T02:31:04.424Z,82.20
2022-12-09T02:34:03.785Z,82.28
2022-12-09T02:36:40.426Z,82.37
2022-12-09T02:39:11.038Z,82.78
2022-12-09T02:41:44.133Z,83.09
2022-12-09T02:44:17.190Z,84.47
2022-12-09T02:46:46.813Z,85.29
2022-12-09T02:49:16.608Z,85.42
2022-12-09T02:51:45.751Z,85.45
2022-12-09T02:54:17.725Z,85.37
2022-12-09T02:56:54.147Z,85.30
2022-12-09T02:59:22.437Z,85.27
2022-12-09T03:02:21.104Z,85.31
2022-12-09T03:05:10.225Z,85.27
2022-12-09T03:08:03.416Z,85.20
2022-12-09T03:10:54.149Z,85.40
2022-12-09T03:13:37.734Z,85.44
2022-12-09T03:16:27.165Z,85.35
2022-12-09T03:19:01.820Z,85.38
2022-12-09T03:21:32.904Z,85.48
2022-12-09T03:24:02.650Z,85.28
2022-12-09T03:26:33.222Z,85.25
2022-12-09T03:29:06.006Z,85.57
2022-12-09T03:31:36.937Z,85.65
2022-12-09T03:34:07.949Z,86.06
2022-12-09T03:36:40.945Z,86.19
2022-12-09T03:39:19.285Z,86.35
2022-12-09T03:41:58.418Z,86.80
2022-12-09T03:44:31.281Z,87.10
2022-12-09T03:46:59.665Z,87.00
2022-12-09T03:49:28.367Z,86.97
2022-12-09T03:52:28.343Z,86.94
2022-12-09T03:55:07.025Z,86.90
2022-12-09T03:57:39.893Z,86.62
2022-12-09T04:00:09.482Z,86.83
2022-12-09T04:02:38.539Z,87.19
2022-12-09T04:05:07.779Z,87.10
2022-12-09T04:07:36.109Z,86.87
2022-12-09T04:10:04.995Z,86.44
2022-12-09T04:12:33.911Z,86.12
2022-12-09T04:15:02.575Z,85.75
2022-12-09T04:17:30.879Z,85.46
2022-12-09T04:19:59.947Z,85.16
2022-12-09T04:22:28.108Z,84.86
2022-12-09T04:24:56.586Z,84.63
2022-12-09T04:27:24.848Z,84.35
2022-12-09T04:29:53.223Z,84.13
2022-12-09T04:32:22.501Z,83.91
2022-12-09T04:34:51.327Z,83.84
2022-12-09T04:37:19.648Z,83.83
2022-12-09T04:39:47.932Z,83.91
2022-12-09T04:42:16.378Z,84.61
2022-12-09T04:44:44.454Z,85.53
2022-12-09T04:47:12.921Z,85.89
2022-12-09T04:49:40.955Z,85.72
2022-12-09T04:52:09.260Z,85.45
2022-12-09T04:54:37.362Z,85.39
2022-12-09T04:57:05.395Z,85.26
2022-12-09T04:59:33.700Z,85.09
2022-12-09T05:02:02.277Z,85.14
2022-12-09T05:04:30.661Z,85.18
2022-12-09T05:06:59.462Z,85.19
2022-12-09T05:09:27.857Z,84.90
2022-12-09T05:11:59.332Z,84.71
2022-12-09T05:14:27.548Z,84.44
2022-12-09T05:16:56.286Z,83.96
2022-12-09T05:19:25.206Z,83.44
2022-12-09T05:21:53.673Z,83.08
2022-12-09T05:24:21.908Z,82.85
2022-12-09T05:26:51.913Z,82.54
2022-12-09T05:29:23.029Z,82.32
2022-12-09T05:31:52.530Z,82.33
2022-12-09T05:34:21.153Z,82.36
2022-12-09T05:36:49.705Z,82.29
2022-12-09T05:39:18.233Z,82.13
2022-12-09T05:41:46.631Z,82.14
2022-12-09T05:44:15.318Z,82.07
2022-12-09T05:46:43.564Z,82.03
2022-12-09T05:49:12.148Z,81.99
2022-12-09T05:51:40.852Z,82.25
2022-12-09T05:54:09.164Z,82.71
2022-12-09T05:56:39.481Z,83.23
2022-12-09T05:59:11.454Z,83.80
2022-12-09T06:01:39.789Z,84.25
2022-12-09T06:04:08.240Z,84.39
2022-12-09T06:06:36.997Z,84.38
2022-12-09T06:09:05.873Z,84.39
2022-12-09T06:11:34.212Z,84.45
2022-12-09T06:14:02.831Z,84.57
2022-12-09T06:16:31.394Z,84.72
2022-12-09T06:18:59.992Z,84.86
2022-12-09T06:21:28.538Z,85.08
2022-12-09T06:23:57.464Z,85.25
2022-12-09T06:26:28.252Z,85.41
2022-12-09T06:28:57.760Z,85.19
2022-12-09T06:31:27.623Z,85.13
2022-12-09T06:33:58.335Z,85.14
2022-12-09T06:36:29.616Z,85.17
2022-12-09T06:39:04.497Z,85.14
2022-12-09T06:41:38.680Z,85.32
2022-12-09T06:44:07.533Z,85.49
2022-12-09T06:46:36.101Z,85.65
2022-12-09T06:49:04.879Z,85.55
2022-12-09T06:51:33.409Z,85.47
2022-12-09T06:54:02.441Z,85.18
2022-12-09T06:56:31.230Z,85.14
2022-12-09T06:58:59.929Z,85.19
2022-12-09T07:01:28.630Z,85.06
2022-12-09T07:03:57.428Z,84.99
2022-12-09T07:06:32.840Z,84.77
2022-12-09T07:09:05.496Z,84.97
2022-12-09T07:11:35.048Z,85.11
2022-12-09T07:14:04.441Z,85.17
2022-12-09T07:16:33.092Z,85.43
2022-12-09T07:19:03.408Z,85.47
2022-12-09T07:21:33.235Z,85.64
2022-12-09T07:24:03.728Z,85.74
2022-12-09T07:26:33.717Z,85.88
2022-12-09T07:29:03.826Z,85.91
2022-12-09T07:31:33.658Z,85.74
2022-12-09T07:34:03.952Z,85.74
2022-12-09T07:36:34.532Z,85.75
2022-12-09T07:39:06.551Z,85.49
2022-12-09T07:41:35.311Z,85.16
2022-12-09T07:44:04.907Z,84.73
2022-12-09T07:46:34.109Z,84.42
2022-12-09T07:49:06.356Z,83.81
2022-12-09T07:51:34.992Z,83.45
2022-12-09T07:54:04.121Z,82.45
2022-12-09T07:56:32.268Z,82.30
2022-12-09T07:59:00.829Z,81.21
2022-12-09T08:01:30.194Z,81.51
2022-12-09T08:03:59.322Z,80.64
2022-12-09T08:06:29.668Z,79.64
2022-12-09T08:09:04.085Z,79.21
2022-12-09T08:11:34.176Z,78.45
2022-12-09T08:14:11.070Z,78.10
2022-12-09T08:16:42.598Z,78.04
2022-12-09T08:19:12.212Z,77.83
2022-12-09T08:21:40.760Z,77.44
2022-12-09T08:24:11.991Z,76.61
2022-12-09T08:26:42.213Z,76.34
2022-12-09T08:29:13.295Z,76.10
2022-12-09T08:31:43.710Z,75.97
2022-12-09T08:34:13.177Z,75.19
2022-12-09T08:36:42.687Z,74.68
2022-12-09T08:39:13.200Z,74.37
2022-12-09T08:41:43.834Z,73.02
2022-12-09T08:44:16.192Z,72.51
2022-12-09T08:46:48.522Z,71.03
2022-12-09T08:49:19.436Z,68.96
2022-12-09T08:51:50.196Z,65.58
2022-12-09T08:54:19.829Z,62.25
2022-12-09T08:56:50.202Z,60.38
2022-12-09T08:59:19.491Z,58.20
2022-12-09T09:01:48.654Z,55.99
2022-12-09T09:04:19.375Z,54.23
2022-12-09T09:06:50.418Z,52.14
2022-12-09T09:09:21.354Z,51.12
2022-12-09T09:11:50.245Z,49.74
2022-12-09T09:14:18.406Z,47.84
2022-12-09T09:16:47.259Z,46.52
2022-12-09T09:19:20.409Z,46.74
2022-12-09T09:21:49.859Z,47.35
2022-12-09T09:24:20.592Z,48.10
2022-12-09T09:26:50.489Z,48.88
2022-12-09T09:29:22.043Z,49.28
2022-12-09T09:31:51.943Z,49.97
2022-12-09T09:34:21.712Z,50.46
2022-12-09T09:36:50.503Z,50.96
2022-12-09T09:39:20.170Z,52.04
2022-12-09T09:41:48.261Z,53.51
2022-12-09T09:44:34.797Z,54.78
2022-12-09T09:47:12.467Z,56.17
2022-12-09T09:49:47.021Z,57.27
2022-12-09T09:52:21.834Z,58.17
2022-12-09T09:54:51.361Z,59.07
2022-12-09T09:57:25.641Z,59.70
2022-12-09T10:00:22.658Z,60.35
2022-12-09T10:03:02.848Z,60.88
2022-12-09T10:05:36.523Z,61.50
2022-12-09T10:08:37.583Z,62.36
2022-12-09T10:11:21.435Z,62.95
2022-12-09T10:14:20.379Z,63.33
2022-12-09T10:17:18.546Z,63.30
2022-12-09T10:19:50.524Z,63.09
2022-12-09T10:22:29.105Z,62.83
2022-12-09T10:25:03.469Z,62.68
2022-12-09T10:27:45.969Z,62.28
2022-12-09T10:30:17.651Z,62.35
2022-12-09T10:32:46.851Z,62.52
2022-12-09T10:35:25.751Z,62.46
2022-12-09T10:37:57.109Z,62.60
2022-12-09T10:40:36.271Z,62.65
2022-12-09T10:43:24.783Z,62.85
2022-12-09T10:48:47.966Z,63.14
2022-12-09T10:51:29.036Z,62.70
2022-12-09T10:54:22.468Z,62.55
2022-12-09T10:57:27.630Z,63.32
2022-12-09T11:00:03.295Z,63.52
2022-12-09T11:02:33.876Z,63.76
2022-12-09T11:05:24.093Z,64.23
2022-12-09T11:07:54.658Z,64.94
2022-12-09T11:10:26.611Z,65.25
2022-12-09T11:13:04.585Z,65.74
2022-12-09T11:15:46.169Z,66.10
2022-12-09T11:18:24.670Z,65.96
2022-12-09T11:21:03.125Z,65.64
2022-12-09T11:23:32.641Z,65.03
2022-12-09T11:26:07.561Z,64.87
2022-12-09T11:28:39.566Z,65.14
2022-12-09T11:31:29.326Z,65.42
2022-12-09T11:34:01.403Z,65.53
2022-12-09T11:36:49.970Z,65.71
2022-12-09T11:39:20.295Z,65.64
2022-12-09T11:41:53.154Z,66.13
2022-12-09T11:44:31.809Z,66.78
2022-12-09T11:47:09.796Z,67.41
2022-12-09T11:49:51.326Z,68.43
2022-12-09T11:52:19.322Z,69.22
2022-12-09T11:55:11.613Z,68.68
2022-12-09T11:57:45.811Z,68.89
2022-12-09T12:00:19.424Z,69.15
2022-12-09T12:03:04.541Z,69.38
2022-12-09T12:05:48.436Z,69.55
2022-12-09T12:08:55.829Z,69.29
2022-12-09T12:11:31.770Z,68.98
2022-12-09T12:14:19.387Z,68.61
2022-12-09T12:16:50.533Z,67.07
2022-12-09T12:19:43.487Z,66.69
2022-12-09T12:22:17.622Z,66.36
2022-12-09T12:25:18.224Z,66.45
2022-12-09T12:28:14.621Z,66.45
2022-12-09T12:30:54.940Z,66.52
2022-12-09T12:36:27.174Z,66.10
2022-12-09T12:38:58.272Z,65.89
2022-12-09T12:41:43.374Z,65.93
2022-12-09T12:44:49.059Z,65.92
2022-12-09T12:47:43.539Z,66.09
2022-12-09T12:50:20.504Z,65.39
2022-12-09T12:53:01.027Z,65.45
2022-12-09T12:55:54.022Z,65.53
2022-12-09T12:58:31.124Z,65.92
2022-12-09T13:01:02.264Z,66.22
2022-12-09T13:04:06.225Z,66.34
2022-12-09T13:06:50.628Z,67.22
2022-12-09T13:09:25.879Z,67.90
2022-12-09T13:12:21.450Z,68.07
2022-12-09T13:14:53.995Z,68.25
2022-12-09T13:17:29.504Z,68.83
2022-12-09T13:20:01.402Z,68.99
2022-12-09T13:22:52.594Z,68.99
2022-12-09T13:25:35.540Z,69.10
2022-12-09T13:28:51.904Z,69.32
2022-12-09T13:31:28.512Z,69.49
2022-12-09T13:34:02.877Z,69.82
2022-12-09T13:36:47.559Z,69.88
2022-12-09T13:39:40.787Z,69.90
2022-12-09T13:42:24.250Z,69.87
2022-12-09T13:45:05.665Z,69.77
2022-12-09T13:47:36.872Z,69.66
2022-12-09T13:50:23.477Z,69.52
2022-12-09T13:52:56.256Z,69.42
2022-12-09T13:55:33.472Z,69.28
2022-12-09T13:58:20.338Z,69.21
2022-12-09T14:01:11.890Z,69.05
2022-12-09T14:03:49.714Z,68.88
2022-12-09T14:06:33.017Z,68.78
2022-12-09T14:09:06.084Z,69.05
2022-12-09T14:11:43.137Z,69.97
2022-12-09T14:14:23.789Z,70.70
2022-12-09T14:17:25.544Z,71.24
2022-12-09T14:20:00.608Z,71.66
2022-12-09T14:22:33.089Z,71.75
2022-12-09T14:25:27.105Z,72.05
2022-12-09T14:28:26.240Z,71.92
2022-12-09T14:30:59.731Z,71.84
2022-12-09T14:33:34.785Z,71.60
2022-12-09T14:36:14.873Z,71.49
2022-12-09T14:39:16.097Z,71.34
2022-12-09T14:41:52.224Z,71.39
2022-12-09T14:44:45.150Z,71.09
2022-12-09T14:47:22.717Z,71.00
2022-12-09T14:49:52.951Z,70.70
2022-12-09T14:52:30.706Z,70.59
2022-12-09T14:55:02.655Z,70.45
2022-12-09T14:57:37.683Z,70.44
2022-12-09T15:00:07.698Z,70.30
2022-12-09T15:02:35.990Z,70.02
2022-12-09T15:05:16.902Z,69.96
2022-12-09T15:07:45.827Z,70.10
2022-12-09T15:10:34.934Z,70.00
2022-12-09T15:13:03.781Z,70.06
2022-12-09T15:15:35.710Z,70.27
2022-12-09T15:18:16.374Z,70.79
2022-12-09T15:20:54.313Z,71.40
2022-12-09T15:23:23.831Z,72.17
2022-12-09T15:25:54.510Z,72.67
2022-12-09T15:28:26.752Z,72.50
2022-12-09T15:31:00.824Z,72.53
2022-12-09T15:33:32.788Z,72.42
2022-12-09T15:36:04.451Z,72.90
2022-12-09T15:38:40.705Z,72.34
2022-12-09T15:41:10.274Z,72.10
2022-12-09T15:43:40.914Z,72.49
2022-12-09T15:46:10.975Z,72.45
2022-12-09T15:48:45.764Z,72.72
2022-12-09T15:51:18.926Z,72.89
2022-12-09T15:53:57.875Z,73.23
2022-12-09T15:56:52.085Z,73.03
2022-12-09T15:59:22.522Z,73.03
2022-12-09T16:01:56.850Z,73.20
2022-12-09T16:04:29.793Z,73.23
2022-12-09T16:07:08.855Z,73.50
2022-12-09T16:09:36.999Z,73.11
2022-12-09T16:12:05.783Z,73.25
2022-12-09T16:14:44.454Z,73.11
2022-12-09T16:17:36.810Z,73.15
2022-12-09T16:20:32.912Z,73.24
2022-12-09T16:23:02.629Z,73.14
2022-12-09T16:25:39.128Z,73.19
2022-12-09T16:28:07.341Z,73.49
2022-12-09T16:30:45.455Z,73.58
2022-12-09T16:33:39.258Z,74.16
2022-12-09T16:36:07.792Z,74.21
2022-12-09T16:38:37.528Z,74.22
2022-12-09T16:41:09.225Z,74.48
2022-12-09T16:43:53.246Z,74.70
2022-12-09T16:46:40.791Z,75.04
2022-12-09T16:49:09.009Z,75.39
2022-12-09T16:51:38.645Z,75.58
2022-12-09T16:54:19.628Z,75.73
2022-12-09T16:56:48.638Z,75.64
2022-12-09T16:59:16.954Z,75.89
2022-12-09T17:01:45.233Z,75.74
2022-12-09T17:04:13.471Z,75.75
2022-12-09T17:06:41.488Z,75.68
2022-12-09T17:09:10.705Z,75.80
2022-12-09T17:11:40.995Z,76.02
2022-12-09T17:14:12.747Z,76.20
2022-12-09T17:16:40.853Z,76.48
2022-12-09T17:19:08.993Z,76.66
2022-12-09T17:21:37.013Z,76.60
2022-12-09T17:24:05.660Z,76.47
2022-12-09T17:26:33.648Z,76.46
2022-12-09T17:29:02.240Z,76.39
2022-12-09T17:31:30.409Z,75.95
2022-12-09T17:33:58.703Z,75.94
2022-12-09T17:36:26.836Z,75.89
2022-12-09T17:38:55.124Z,75.94
2022-12-09T17:41:23.148Z,75.90
2022-12-09T17:43:51.868Z,76.05
2022-12-09T17:46:19.948Z,76.60
2022-12-09T17:48:48.001Z,76.51
2022-12-09T17:51:16.704Z,76.44
2022-12-09T17:53:46.640Z,76.54
2022-12-09T17:56:18.514Z,76.57
2022-12-09T17:58:47.310Z,76.17
2022-12-09T18:01:22.053Z,76.22
2022-12-09T18:04:01.366Z,76.00
2022-12-09T18:06:32.286Z,75.82
2022-12-09T18:09:01.697Z,75.37
2022-12-09T18:11:29.777Z,75.33
2022-12-09T18:13:58.258Z,74.82
2022-12-09T18:16:26.438Z,74.14
2022-12-09T18:18:55.004Z,74.01
2022-12-09T18:21:23.230Z,73.64
2022-12-09T18:23:51.319Z,73.58
2022-12-09T18:26:19.930Z,73.63
2022-12-09T18:28:48.382Z,73.57
2022-12-09T18:31:18.177Z,73.18
2022-12-09T18:33:46.959Z,73.18
2022-12-09T18:36:20.246Z,73.38
2022-12-09T18:38:49.136Z,73.52
2022-12-09T18:41:23.426Z,73.43
2022-12-09T18:43:54.367Z,73.38
2022-12-09T18:46:26.533Z,73.30
2022-12-09T18:49:01.994Z,73.02
2022-12-09T18:51:31.078Z,73.17
2022-12-09T18:54:01.446Z,72.99
2022-12-09T18:56:30.459Z,73.22
2022-12-09T18:59:07.999Z,72.89
2022-12-09T19:01:42.591Z,72.93
2022-12-09T19:04:14.606Z,73.06
2022-12-09T19:06:45.306Z,72.84
2022-12-09T19:09:20.711Z,72.80
2022-12-09T19:11:50.275Z,72.85
2022-12-09T19:14:21.003Z,72.93
2022-12-09T19:16:50.363Z,72.15
2022-12-09T19:19:22.902Z,72.08
2022-12-09T19:21:55.399Z,72.21
2022-12-09T19:24:30.498Z,72.52
2022-12-09T19:27:02.340Z,72.33
2022-12-09T19:29:30.448Z,71.85
2022-12-09T19:31:58.509Z,71.98
2022-12-09T19:34:29.585Z,71.91
2022-12-09T19:37:00.490Z,71.83
2022-12-09T19:39:31.063Z,72.21
2022-12-09T19:41:59.542Z,72.12
2022-12-09T19:44:59.413Z,72.23
2022-12-09T19:47:17.072Z,72.00
2022-12-09T19:49:45.064Z,72.07
2022-12-09T19:52:13.149Z,72.16
2022-12-09T19:54:41.613Z,72.44
2022-12-09T19:57:10.214Z,72.46
2022-12-09T19:59:38.239Z,72.60
2022-12-09T20:02:07.364Z,72.65
2022-12-09T20:04:51.525Z,72.76
2022-12-09T20:07:20.949Z,72.78
2022-12-09T20:09:49.178Z,72.70
2022-12-09T20:12:17.203Z,72.50
2022-12-09T20:14:46.631Z,71.96
2022-12-09T20:17:14.699Z,71.99
2022-12-09T20:19:42.672Z,71.43
2022-12-09T20:22:11.079Z,71.40
2022-12-09T20:24:39.253Z,71.46
2022-12-09T20:27:07.310Z,71.15
2022-12-09T20:29:38.346Z,71.15
2022-12-09T20:32:08.619Z,70.70
2022-12-09T20:34:37.404Z,70.52
2022-12-09T20:37:05.614Z,70.40
2022-12-09T20:39:33.775Z,70.43
2022-12-09T20:42:02.069Z,70.48
2022-12-09T20:44:30.131Z,70.49
2022-12-09T20:46:58.360Z,70.80
2022-12-09T20:49:27.251Z,71.22
2022-12-09T20:51:55.703Z,71.38
2022-12-09T20:54:23.803Z,71.41
2022-12-09T20:56:52.631Z,71.14
2022-12-09T20:59:20.863Z,71.12
2022-12-09T21:01:48.977Z,71.21
2022-12-09T21:04:17.444Z,71.33
2022-12-09T21:06:46.216Z,71.37
2022-12-09T21:09:19.997Z,71.45
2022-12-09T21:11:49.654Z,71.17
2022-12-09T21:14:18.044Z,71.09
2022-12-09T21:16:47.941Z,71.23
2022-12-09T21:19:17.673Z,71.75
2022-12-09T21:21:46.519Z,72.34
2022-12-09T21:24:16.284Z,72.99
2022-12-09T21:26:44.980Z,73.05
2022-12-09T21:29:14.183Z,73.13
2022-12-09T21:31:43.104Z,73.26
2022-12-09T21:34:11.414Z,73.36
2022-12-09T21:36:42.707Z,73.34
2022-12-09T21:39:14.296Z,73.54
2022-12-09T21:41:42.924Z,73.56
2022-12-09T21:44:17.057Z,73.28
2022-12-09T21:46:46.128Z,72.76
2022-12-09T21:49:14.541Z,73.05
2022-12-09T21:51:43.362Z,72.96
2022-12-09T21:54:12.024Z,72.70
2022-12-09T21:56:40.352Z,72.64
2022-12-09T21:59:10.640Z,72.84
2022-12-09T22:01:41.424Z,72.82
2022-12-09T22:04:13.849Z,72.32
2022-12-09T22:06:48.138Z,70.96
2022-12-09T22:09:18.260Z,71.06
2022-12-09T22:11:46.267Z,71.05
2022-12-09T22:14:14.290Z,71.08
2022-12-09T22:16:44.549Z,71.25
2022-12-09T22:19:18.436Z,71.75
2022-12-09T22:21:47.304Z,72.31
2022-12-09T22:24:15.773Z,72.22
2022-12-09T22:26:44.259Z,71.85
2022-12-09T22:29:14.633Z,71.43
2022-12-09T22:31:43.972Z,71.46
2022-12-09T22:34:17.890Z,71.69
2022-12-09T22:36:47.849Z,71.28
2022-12-09T22:39:18.751Z,70.97
2022-12-09T22:41:46.854Z,70.67
2022-12-09T22:44:17.718Z,70.90
2022-12-09T22:46:46.279Z,71.06
2022-12-09T22:49:15.733Z,71.00
2022-12-09T22:51:44.880Z,70.85
2022-12-09T22:54:14.610Z,70.79
2022-12-09T22:56:43.887Z,70.74
2022-12-09T22:59:14.252Z,70.65
2022-12-09T23:01:45.044Z,70.47
2022-12-09T23:04:16.118Z,70.14
2022-12-09T23:06:44.664Z,69.65
2022-12-09T23:09:21.680Z,69.62
2022-12-09T23:11:51.707Z,69.14
2022-12-09T23:14:20.047Z,68.69
2022-12-09T23:16:48.176Z,68.33
2022-12-09T23:19:16.293Z,68.24
2022-12-09T23:21:44.281Z,67.79
2022-12-09T23:24:21.005Z,67.52
2022-12-09T23:26:55.869Z,67.59
2022-12-09T23:29:23.989Z,67.77
2022-12-09T23:31:52.253Z,67.85
2022-12-09T23:34:22.284Z,68.07
2022-12-09T23:36:50.785Z,67.98
2022-12-09T23:39:19.607Z,67.94
2022-12-09T23:41:49.060Z,67.94
2022-12-09T23:44:19.160Z,68.38
2022-12-09T23:46:47.249Z,68.52
2022-12-09T23:49:15.425Z,68.41
2022-12-09T23:51:44.179Z,68.10
2022-12-09T23:54:14.806Z,67.73
2022-12-09T23:56:44.738Z,67.97
2022-12-09T23:59:14.636Z,68.61
